Time;durP1;ratioP1;P1;durP2;ratioP2;P2;SDS_P1;SDS_P2;PMS_P1;PMS_P2;Temp;Humidity;BMP_temperature;BMP_pressure;BME280_temperature;BME280_humidity;BME280_pressure;Samples;Min_cycle;Max_cycle;Signal;HPM_P1;HPM_P2
2023/07/19 00:01:33;;;;;;;3.58;2.20;;;22.00;99.90;;;;;;5033430;28;20038;-43
2023/07/19 00:03:58;;;;;;;3.58;2.33;;;22.00;99.90;;;;;;5033564;28;20083;-44
2023/07/19 00:06:24;;;;;;;5.00;2.17;;;22.00;99.90;;;;;;5033259;28;20029;-43
2023/07/19 00:08:50;;;;;;;3.88;2.17;;;22.00;99.90;;;;;;5032657;28;20052;-42
2023/07/19 00:11:16;;;;;;;5.10;2.53;;;22.00;99.90;;;;;;5033071;28;20060;-41
2023/07/19 00:13:41;;;;;;;5.65;2.90;;;22.00;99.90;;;;;;5033134;28;20116;-43
2023/07/19 00:16:07;;;;;;;2.70;2.38;;;22.00;99.90;;;;;;5033126;28;20507;-45
2023/07/19 00:18:33;;;;;;;4.90;2.67;;;22.00;99.90;;;;;;5032855;28;20090;-43
2023/07/19 00:20:59;;;;;;;3.97;2.50;;;22.00;99.90;;;;;;5032803;28;20033;-44
2023/07/19 00:23:25;;;;;;;4.35;2.78;;;22.00;99.90;;;;;;5032964;28;20098;-43
2023/07/19 00:25:50;;;;;;;3.90;2.60;;;22.00;99.90;;;;;;5032874;28;20167;-41
2023/07/19 00:28:16;;;;;;;4.28;2.20;;;22.00;99.90;;;;;;5032705;28;20084;-43
2023/07/19 00:30:42;;;;;;;3.92;1.92;;;22.00;99.90;;;;;;5032765;28;20051;-43
2023/07/19 00:33:07;;;;;;;5.80;2.35;;;22.00;99.90;;;;;;5032886;28;20017;-43
2023/07/19 00:35:33;;;;;;;3.42;2.40;;;22.00;99.90;;;;;;5032800;28;20401;-46
2023/07/19 00:37:59;;;;;;;2.47;2.13;;;22.00;99.90;;;;;;5032733;28;20484;-42
2023/07/19 00:40:24;;;;;;;5.85;2.58;;;22.00;99.90;;;;;;5032335;28;20489;-44
2023/07/19 00:42:57;;;;;;;3.90;2.58;;;22.00;99.90;;;;;;5032533;28;20030;-46
2023/07/19 00:45:26;;;;;;;3.42;2.30;;;22.00;99.90;;;;;;5032548;28;20021;-49
2023/07/19 00:47:54;;;;;;;3.20;2.30;;;21.90;99.90;;;;;;5032434;28;20520;-43
2023/07/19 00:50:21;;;;;;;3.60;2.33;;;22.00;99.90;;;;;;5032130;28;20048;-44
2023/07/19 00:52:47;;;;;;;4.30;2.60;;;22.00;99.90;;;;;;5032357;28;20033;-48
2023/07/19 00:55:13;;;;;;;3.17;2.30;;;22.00;99.90;;;;;;5032311;28;20033;-45
2023/07/19 00:57:39;;;;;;;3.55;2.38;;;22.00;99.90;;;;;;5032245;28;20033;-48
2023/07/19 01:00:06;;;;;;;3.25;2.42;;;22.00;99.90;;;;;;5032035;28;20060;-46
2023/07/19 01:02:32;;;;;;;7.60;2.50;;;22.00;99.90;;;;;;5032156;28;20029;-43
2023/07/19 01:04:58;;;;;;;5.32;2.50;;;21.90;99.90;;;;;;5032083;28;20034;-42
2023/07/19 01:07:24;;;;;;;4.88;2.50;;;21.90;99.90;;;;;;5031896;28;20025;-45
2023/07/19 01:09:50;;;;;;;3.95;2.40;;;22.00;99.90;;;;;;5032291;28;20030;-46
2023/07/19 01:12:16;;;;;;;2.92;2.20;;;22.00;99.90;;;;;;5032047;28;20021;-43
2023/07/19 01:14:42;;;;;;;3.03;2.22;;;21.90;99.90;;;;;;5032221;28;20072;-45
2023/07/19 01:17:07;;;;;;;4.30;2.33;;;21.90;99.90;;;;;;5031904;28;20469;-44
2023/07/19 01:19:33;;;;;;;6.68;2.25;;;22.00;99.90;;;;;;5031144;28;20038;-46
2023/07/19 01:21:59;;;;;;;3.28;2.10;;;22.00;99.90;;;;;;5032010;28;20100;-46
2023/07/19 01:24:24;;;;;;;5.30;2.30;;;21.90;99.90;;;;;;5031791;28;20029;-48
2023/07/19 01:26:50;;;;;;;4.03;2.45;;;22.00;99.90;;;;;;5031780;28;20048;-47
2023/07/19 01:29:16;;;;;;;7.95;2.55;;;22.00;99.90;;;;;;5031354;28;20032;-49
2023/07/19 01:31:41;;;;;;;3.65;2.55;;;21.90;99.90;;;;;;5031794;28;20481;-44
2023/07/19 01:34:07;;;;;;;3.40;2.30;;;22.00;99.90;;;;;;5031834;28;20034;-43
2023/07/19 01:36:33;;;;;;;3.03;2.50;;;21.90;99.90;;;;;;5031935;28;20477;-47
2023/07/19 01:38:59;;;;;;;3.22;2.33;;;21.90;99.90;;;;;;5031813;28;20032;-47
2023/07/19 01:41:24;;;;;;;4.78;2.33;;;21.90;99.90;;;;;;5031563;28;20025;-47
2023/07/19 01:43:50;;;;;;;5.72;2.55;;;21.90;99.90;;;;;;5031518;28;20072;-47
2023/07/19 01:46:16;;;;;;;5.43;2.40;;;21.90;99.90;;;;;;5031544;28;20021;-42
2023/07/19 01:48:41;;;;;;;3.58;2.42;;;21.90;99.90;;;;;;5031173;28;20508;-44
2023/07/19 01:51:07;;;;;;;5.30;2.33;;;21.90;99.90;;;;;;5031150;28;20071;-42
2023/07/19 01:53:32;;;;;;;4.85;2.55;;;21.90;99.90;;;;;;5013643;28;20030;-46
2023/07/19 01:55:58;;;;;;;6.20;2.50;;;21.90;99.90;;;;;;5031347;28;20060;-43
2023/07/19 01:58:24;;;;;;;3.17;2.08;;;21.90;99.90;;;;;;5031181;28;20026;-43
2023/07/19 02:00:51;;;;;;;4.57;2.22;;;21.90;99.90;;;;;;5031091;28;20374;-46
2023/07/19 02:03:18;;;;;;;4.35;2.40;;;21.90;99.90;;;;;;5031189;28;20025;-46
2023/07/19 02:05:43;;;;;;;3.95;2.63;;;21.90;99.90;;;;;;5031193;28;20142;-45
2023/07/19 02:08:09;;;;;;;3.95;2.50;;;21.90;99.90;;;;;;5031154;28;20093;-46
2023/07/19 02:10:35;;;;;;;5.88;2.83;;;21.90;99.90;;;;;;5031032;28;20026;-42
2023/07/19 02:13:00;;;;;;;3.65;2.42;;;21.90;99.90;;;;;;5013712;28;20461;-42
2023/07/19 02:15:26;;;;;;;6.03;2.70;;;21.90;99.90;;;;;;5031352;28;20100;-44
2023/07/19 02:17:52;;;;;;;3.50;2.45;;;21.90;99.90;;;;;;5030972;28;20025;-44
2023/07/19 02:20:19;;;;;;;7.78;2.97;;;21.90;99.90;;;;;;5030750;28;20397;-42
2023/07/19 02:22:46;;;;;;;9.35;2.65;;;21.80;99.90;;;;;;5031020;28;20025;-44
2023/07/19 02:25:12;;;;;;;6.95;2.70;;;21.90;99.90;;;;;;5031060;28;20036;-42
2023/07/19 02:27:37;;;;;;;6.22;2.58;;;21.80;99.90;;;;;;5031244;28;20021;-43
2023/07/19 02:30:03;;;;;;;7.65;2.88;;;21.90;99.90;;;;;;5030870;28;20463;-43
2023/07/19 02:32:29;;;;;;;6.60;2.92;;;21.80;99.90;;;;;;5033612;28;20049;-42
2023/07/19 02:34:55;;;;;;;7.63;2.65;;;21.80;99.90;;;;;;5034868;28;20025;-42
2023/07/19 02:37:20;;;;;;;5.80;2.47;;;21.80;99.90;;;;;;5034855;28;20101;-43
2023/07/19 02:39:46;;;;;;;7.65;2.80;;;21.90;99.90;;;;;;5034929;28;20105;-45
2023/07/19 02:42:12;;;;;;;4.43;2.45;;;21.80;99.90;;;;;;5034927;28;20439;-43
2023/07/19 02:44:37;;;;;;;7.85;2.67;;;21.90;99.90;;;;;;5034915;28;20025;-42
2023/07/19 02:47:03;;;;;;;5.15;2.55;;;21.80;99.90;;;;;;5034705;28;20037;-43
2023/07/19 02:49:29;;;;;;;5.28;2.72;;;21.80;99.90;;;;;;5034367;28;20057;-42
2023/07/19 02:51:54;;;;;;;4.38;2.60;;;21.80;99.90;;;;;;5035379;28;20072;-45
2023/07/19 02:54:20;;;;;;;7.72;2.72;;;21.80;99.90;;;;;;5034662;28;20018;-42
2023/07/19 02:56:45;;;;;;;4.38;2.78;;;21.80;99.90;;;;;;5034586;28;20025;-43
2023/07/19 02:59:11;;;;;;;4.82;2.47;;;21.80;99.90;;;;;;5034208;28;20037;-42
2023/07/19 03:01:37;;;;;;;8.52;2.97;;;21.80;99.90;;;;;;5016706;28;20048;-43
2023/07/19 03:04:03;;;;;;;7.50;2.65;;;21.80;99.90;;;;;;5034330;28;20060;-43
2023/07/19 03:06:28;;;;;;;8.77;2.83;;;21.80;99.90;;;;;;5034608;28;20096;-41
2023/07/19 03:08:54;;;;;;;6.35;2.50;;;21.80;99.90;;;;;;5034044;28;20432;-43
2023/07/19 03:11:20;;;;;;;6.90;2.38;;;21.80;99.90;;;;;;5034191;28;20021;-43
2023/07/19 03:13:46;;;;;;;3.70;2.58;;;21.80;99.90;;;;;;5016493;28;20021;-42
2023/07/19 03:16:11;;;;;;;5.60;2.53;;;21.80;99.90;;;;;;5016489;28;20045;-42
2023/07/19 03:18:37;;;;;;;6.35;2.60;;;21.80;99.90;;;;;;5034171;28;20041;-42
2023/07/19 03:21:02;;;;;;;6.55;2.75;;;21.80;99.90;;;;;;5033954;28;20029;-42
2023/07/19 03:23:30;;;;;;;3.85;2.50;;;21.80;99.90;;;;;;5016287;28;20041;-42
2023/07/19 03:25:57;;;;;;;6.55;2.40;;;21.80;99.90;;;;;;5034046;28;20075;-45
2023/07/19 03:28:28;;;;;;;5.22;2.47;;;21.80;99.90;;;;;;5034335;28;20104;-43
2023/07/19 03:30:54;;;;;;;5.05;2.67;;;21.80;99.90;;;;;;5033731;28;20024;-45
2023/07/19 03:33:24;;;;;;;6.22;2.60;;;21.80;99.90;;;;;;5033841;28;20021;-45
2023/07/19 03:35:49;;;;;;;5.93;2.65;;;21.80;99.90;;;;;;5034034;28;20052;-43
2023/07/19 03:38:17;;;;;;;6.80;2.53;;;21.70;99.90;;;;;;5033749;28;20025;-46
2023/07/19 03:40:43;;;;;;;4.93;2.70;;;21.70;99.90;;;;;;5015758;28;20026;-42
2023/07/19 03:43:09;;;;;;;5.75;2.83;;;21.70;99.90;;;;;;5033080;28;20040;-44
2023/07/19 03:45:34;;;;;;;4.40;2.50;;;21.80;99.90;;;;;;5033650;28;20391;-43
2023/07/19 03:48:00;;;;;;;4.05;2.38;;;21.80;99.90;;;;;;5033542;28;20033;-43
2023/07/19 03:50:25;;;;;;;4.82;2.80;;;21.80;99.90;;;;;;5033340;28;20366;-45
2023/07/19 03:52:51;;;;;;;6.28;2.58;;;21.70;99.90;;;;;;5033570;28;20075;-42
2023/07/19 03:55:17;;;;;;;4.00;2.63;;;21.70;99.90;;;;;;5033612;28;20022;-43
2023/07/19 03:57:42;;;;;;;2.88;2.50;;;21.70;99.90;;;;;;5033467;28;20025;-42
2023/07/19 04:00:09;;;;;;;6.28;2.67;;;21.70;99.90;;;;;;5033155;28;20030;-43
2023/07/19 04:02:35;;;;;;;6.25;2.80;;;21.70;99.90;;;;;;5033359;28;20365;-45
2023/07/19 04:05:00;;;;;;;4.72;2.55;;;21.70;99.90;;;;;;5033394;28;20033;-44
2023/07/19 04:07:26;;;;;;;3.70;2.42;;;21.70;99.90;;;;;;5033302;28;20031;-46
2023/07/19 04:09:52;;;;;;;8.02;2.63;;;21.70;99.90;;;;;;5032997;28;20026;-42
2023/07/19 04:12:18;;;;;;;4.95;2.45;;;21.70;99.90;;;;;;5033234;28;20095;-42
2023/07/19 04:14:43;;;;;;;6.85;2.72;;;21.70;99.90;;;;;;5033067;28;20017;-49
2023/07/19 04:17:10;;;;;;;4.88;2.42;;;21.70;99.90;;;;;;5033170;28;20075;-47
2023/07/19 04:19:36;;;;;;;8.30;2.80;;;21.70;99.90;;;;;;5033476;28;20034;-43
2023/07/19 04:22:03;;;;;;;5.07;2.60;;;21.70;99.90;;;;;;5033334;28;20021;-42
2023/07/19 04:24:28;;;;;;;6.75;2.97;;;21.70;99.90;;;;;;5033010;28;20105;-45
2023/07/19 04:26:54;;;;;;;3.35;2.30;;;21.70;99.90;;;;;;5033042;28;20113;-42
2023/07/19 04:29:21;;;;;;;5.07;2.50;;;21.60;99.90;;;;;;5032494;28;20539;-43
2023/07/19 04:31:47;;;;;;;8.55;2.60;;;21.70;99.90;;;;;;5032793;28;20392;-42
2023/07/19 04:34:12;;;;;;;3.17;2.42;;;21.60;99.90;;;;;;5033151;28;20025;-45
2023/07/19 04:36:39;;;;;;;3.53;2.25;;;21.70;99.90;;;;;;5032881;28;20036;-43
2023/07/19 04:39:05;;;;;;;3.95;2.30;;;21.70;99.90;;;;;;5032867;28;20057;-44
2023/07/19 04:41:31;;;;;;;3.97;2.50;;;21.70;99.90;;;;;;5032905;28;20515;-45
2023/07/19 04:43:56;;;;;;;7.45;2.40;;;21.70;99.90;;;;;;5032443;28;20028;-41
2023/07/19 04:46:22;;;;;;;7.30;3.10;;;21.70;99.90;;;;;;5032975;28;20112;-45
2023/07/19 04:48:48;;;;;;;6.88;3.78;;;21.60;99.90;;;;;;5014443;28;20567;-44
2023/07/19 04:51:13;;;;;;;8.48;3.47;;;21.20;99.90;;;;;;5032377;28;20033;-41
2023/07/19 04:53:39;;;;;;;8.63;3.38;;;21.10;99.90;;;;;;5032316;28;20025;-44
2023/07/19 04:56:04;;;;;;;9.75;3.33;;;21.00;99.90;;;;;;5031376;28;20075;-41
2023/07/19 04:58:30;;;;;;;9.45;3.72;;;21.10;99.90;;;;;;5032060;28;20022;-42
2023/07/19 05:00:56;;;;;;;8.30;3.53;;;21.10;99.90;;;;;;5032181;28;20033;-45
2023/07/19 05:03:22;;;;;;;11.40;3.70;;;21.10;99.90;;;;;;5032634;28;20028;-46
2023/07/19 05:05:47;;;;;;;10.80;3.50;;;21.20;99.90;;;;;;5032467;28;20018;-43
2023/07/19 05:08:13;;;;;;;8.38;3.55;;;21.30;99.90;;;;;;5032227;28;20033;-43
2023/07/19 05:10:39;;;;;;;9.10;3.30;;;21.30;99.90;;;;;;5014346;28;20068;-46
2023/07/19 05:13:05;;;;;;;9.50;3.30;;;21.30;99.90;;;;;;5032701;28;20025;-41
2023/07/19 05:15:32;;;;;;;12.55;3.63;;;21.40;99.90;;;;;;5032291;28;20030;-45
2023/07/19 05:17:59;;;;;;;8.40;3.30;;;21.40;99.90;;;;;;5032121;28;20449;-44
2023/07/19 05:20:26;;;;;;;7.20;3.33;;;21.40;99.90;;;;;;5031772;28;20441;-41
2023/07/19 05:22:51;;;;;;;8.40;3.10;;;21.40;99.90;;;;;;5031961;28;20029;-43
2023/07/19 05:25:17;;;;;;;4.97;2.97;;;21.40;99.90;;;;;;5031836;28;20091;-45
2023/07/19 05:27:43;;;;;;;7.90;3.30;;;21.40;99.90;;;;;;5031674;28;20030;-43
2023/07/19 05:30:09;;;;;;;6.38;3.03;;;21.40;99.90;;;;;;5031610;28;20079;-42
2023/07/19 05:32:35;;;;;;;7.85;3.30;;;21.40;99.90;;;;;;5031901;28;20312;-42
2023/07/19 05:35:01;;;;;;;9.98;3.28;;;21.50;99.90;;;;;;5031804;28;20025;-44
2023/07/19 05:37:27;;;;;;;7.90;3.00;;;21.50;99.90;;;;;;5031661;28;20017;-43
2023/07/19 05:39:53;;;;;;;7.72;2.88;;;21.50;99.90;;;;;;5031538;28;20032;-43
2023/07/19 05:42:19;;;;;;;9.60;3.20;;;21.50;99.90;;;;;;5031421;28;20037;-44
2023/07/19 05:44:44;;;;;;;7.85;2.97;;;21.50;99.90;;;;;;5031525;28;20420;-43
2023/07/19 05:47:10;;;;;;;5.45;3.10;;;21.50;99.90;;;;;;5031690;28;20026;-47
2023/07/19 05:49:37;;;;;;;6.53;2.80;;;21.50;99.90;;;;;;5031185;28;20091;-41
2023/07/19 05:52:03;;;;;;;7.72;3.05;;;21.50;99.90;;;;;;5031398;28;20036;-42
2023/07/19 05:54:29;;;;;;;8.50;2.90;;;21.50;99.90;;;;;;5031323;28;20030;-43
2023/07/19 05:56:55;;;;;;;3.88;2.88;;;21.60;99.90;;;;;;5031324;28;20053;-41
2023/07/19 05:59:21;;;;;;;6.50;3.00;;;21.60;99.90;;;;;;5031036;28;20073;-45
2023/07/19 06:01:46;;;;;;;8.00;3.53;;;21.50;99.90;;;;;;5031330;28;20481;-43
2023/07/19 06:04:13;;;;;;;9.23;2.97;;;21.60;99.90;;;;;;5031255;28;20044;-43
2023/07/19 06:06:38;;;;;;;8.07;3.40;;;21.60;99.90;;;;;;5030883;28;20483;-42
2023/07/19 06:09:05;;;;;;;8.77;3.08;;;21.60;99.90;;;;;;5030854;28;20032;-44
2023/07/19 06:11:34;;;;;;;5.85;3.10;;;21.60;99.90;;;;;;5031182;28;20025;-46
2023/07/19 06:14:01;;;;;;;6.15;3.40;;;21.60;99.90;;;;;;5031374;28;20025;-42
2023/07/19 06:16:27;;;;;;;5.15;2.80;;;21.60;99.90;;;;;;5031460;28;20104;-42
2023/07/19 06:18:52;;;;;;;4.55;2.80;;;21.60;99.90;;;;;;5030935;28;20128;-41
2023/07/19 06:21:18;;;;;;;5.15;3.15;;;21.60;99.90;;;;;;5031103;28;20057;-41
2023/07/19 06:23:44;;;;;;;5.35;2.83;;;21.60;99.90;;;;;;5031139;28;20392;-42
2023/07/19 06:26:10;;;;;;;5.35;2.90;;;21.60;99.90;;;;;;5031018;28;20045;-40
2023/07/19 06:28:36;;;;;;;5.20;3.05;;;21.60;99.90;;;;;;5030860;28;20045;-41
2023/07/19 06:31:02;;;;;;;5.57;2.90;;;21.70;99.90;;;;;;5030996;28;20477;-41
2023/07/19 06:33:29;;;;;;;4.75;2.88;;;21.60;99.90;;;;;;5031052;28;20084;-40
2023/07/19 06:35:55;;;;;;;6.43;3.13;;;21.60;99.90;;;;;;5030977;28;20100;-43
2023/07/19 06:38:20;;;;;;;5.03;2.65;;;21.60;99.90;;;;;;5030872;28;20034;-42
2023/07/19 06:40:46;;;;;;;7.65;3.15;;;21.70;99.90;;;;;;5030603;28;20025;-42
2023/07/19 06:43:12;;;;;;;4.47;2.92;;;21.70;99.90;;;;;;5030865;28;20080;-42
2023/07/19 06:45:37;;;;;;;4.53;2.80;;;21.60;99.90;;;;;;5031103;28;20033;-41
2023/07/19 06:48:03;;;;;;;6.15;2.72;;;21.60;99.90;;;;;;5030812;28;20025;-42
2023/07/19 06:50:29;;;;;;;5.47;3.10;;;21.70;99.90;;;;;;5030598;28;20072;-42
2023/07/19 06:52:54;;;;;;;4.07;2.97;;;21.60;99.90;;;;;;5030847;28;20036;-42
2023/07/19 06:55:20;;;;;;;5.50;3.13;;;21.70;99.90;;;;;;5013069;28;20381;-42
2023/07/19 06:57:46;;;;;;;5.25;2.58;;;21.60;99.90;;;;;;5030662;28;20033;-42
2023/07/19 07:00:12;;;;;;;3.92;2.80;;;21.70;99.90;;;;;;5030644;28;20495;-42
2023/07/19 07:02:38;;;;;;;5.95;2.50;;;21.60;99.90;;;;;;5030683;28;20033;-43
2023/07/19 07:05:04;;;;;;;5.00;2.80;;;21.70;99.90;;;;;;5030676;28;20026;-40
2023/07/19 07:07:29;;;;;;;4.93;2.60;;;21.70;99.90;;;;;;5030605;28;20397;-42
2023/07/19 07:09:57;;;;;;;3.92;2.72;;;21.70;99.90;;;;;;5030252;28;20026;-40
2023/07/19 07:12:23;;;;;;;6.47;3.28;;;21.70;99.90;;;;;;5030632;28;20018;-42
2023/07/19 07:14:49;;;;;;;4.82;2.60;;;21.70;99.90;;;;;;5030688;28;20509;-42
2023/07/19 07:17:14;;;;;;;3.70;2.63;;;21.70;99.90;;;;;;5030454;28;20014;-41
2023/07/19 07:19:40;;;;;;;5.47;2.72;;;21.70;99.90;;;;;;5033046;28;20112;-40
2023/07/19 07:22:05;;;;;;;4.68;3.00;;;21.70;99.90;;;;;;5034773;28;20284;-42
2023/07/19 07:24:31;;;;;;;4.22;2.85;;;21.70;99.90;;;;;;5034057;28;20511;-43
2023/07/19 07:26:57;;;;;;;5.78;2.92;;;21.70;99.90;;;;;;5034192;28;20369;-44
2023/07/19 07:29:22;;;;;;;3.58;2.17;;;21.70;99.90;;;;;;5033856;28;20040;-44
2023/07/19 07:31:48;;;;;;;2.97;2.30;;;21.70;99.90;;;;;;5034053;28;20310;-41
2023/07/19 07:34:14;;;;;;;4.13;2.50;;;21.80;99.90;;;;;;5033997;28;20075;-41
2023/07/19 07:36:39;;;;;;;3.63;2.53;;;21.80;99.90;;;;;;5033937;28;20026;-41
2023/07/19 07:39:05;;;;;;;6.68;2.15;;;21.80;99.90;;;;;;5033431;28;20108;-39
2023/07/19 07:41:32;;;;;;;12.93;2.03;;;21.80;99.90;;;;;;5033898;28;20026;-40
2023/07/19 07:43:57;;;;;;;8.18;2.10;;;21.80;99.90;;;;;;5033777;28;20037;-40
2023/07/19 07:46:24;;;;;;;6.18;2.30;;;21.80;99.90;;;;;;5033864;28;20029;-41
2023/07/19 07:48:50;;;;;;;4.07;2.13;;;21.80;99.90;;;;;;5033378;28;20022;-41
2023/07/19 07:51:15;;;;;;;5.18;1.90;;;21.90;99.90;;;;;;5033539;28;20028;-40
2023/07/19 07:53:41;;;;;;;3.70;1.90;;;21.80;99.90;;;;;;5033480;28;20018;-37
2023/07/19 07:56:06;;;;;;;4.75;2.28;;;21.80;99.90;;;;;;5033482;28;20489;-40
2023/07/19 07:58:32;;;;;;;2.88;2.03;;;21.80;99.90;;;;;;5033402;28;20028;-40
2023/07/19 08:00:59;;;;;;;6.45;2.00;;;21.80;99.90;;;;;;5033355;28;20037;-41
2023/07/19 08:03:25;;;;;;;5.22;1.90;;;21.90;99.90;;;;;;5033441;28;20396;-39
2023/07/19 08:05:51;;;;;;;5.10;2.22;;;21.90;99.90;;;;;;5033427;28;20527;-41
2023/07/19 08:08:16;;;;;;;4.85;2.17;;;21.90;99.90;;;;;;5033106;28;20543;-41
2023/07/19 08:10:42;;;;;;;2.90;2.00;;;21.90;99.90;;;;;;5032930;28;20036;-40
2023/07/19 08:13:09;;;;;;;3.72;1.98;;;21.90;99.90;;;;;;5033356;28;20481;-43
2023/07/19 08:15:35;;;;;;;3.45;1.58;;;21.90;99.90;;;;;;5033206;28;20028;-40
2023/07/19 08:18:01;;;;;;;3.70;1.80;;;21.90;99.90;;;;;;5032928;28;20507;-38
2023/07/19 08:20:27;;;;;;;4.75;1.70;;;21.90;99.90;;;;;;5032824;28;20034;-39
2023/07/19 08:22:52;;;;;;;3.88;1.90;;;21.90;99.90;;;;;;5032884;28;20034;-38
2023/07/19 08:25:19;;;;;;;3.63;1.48;;;21.90;99.90;;;;;;5032968;28;20033;-41
2023/07/19 08:27:44;;;;;;;3.97;1.80;;;21.90;99.90;;;;;;5033138;28;20408;-47
2023/07/19 08:30:15;;;;;;;3.92;1.85;;;21.90;99.90;;;;;;5032458;28;20571;-41
2023/07/19 08:32:43;;;;;;;3.88;1.67;;;21.90;99.90;;;;;;5032885;28;20029;-39
2023/07/19 08:35:09;;;;;;;3.40;1.80;;;22.00;99.90;;;;;;5032798;28;20608;-43
2023/07/19 08:37:34;;;;;;;2.55;1.52;;;21.90;99.90;;;;;;5032682;28;20029;-42
2023/07/19 08:40:00;;;;;;;3.15;1.75;;;21.90;99.90;;;;;;5032677;28;20029;-40
2023/07/19 08:42:26;;;;;;;4.30;1.77;;;21.90;99.90;;;;;;5032648;28;20485;-41
2023/07/19 08:44:52;;;;;;;2.65;1.67;;;22.00;99.90;;;;;;5032565;28;20025;-41
2023/07/19 08:47:17;;;;;;;5.57;1.65;;;22.00;99.90;;;;;;5032536;28;20424;-40
2023/07/19 08:49:44;;;;;;;2.35;1.42;;;21.90;99.90;;;;;;5032282;28;20028;-40
2023/07/19 08:52:13;;;;;;;2.92;1.75;;;21.90;99.90;;;;;;5032419;28;20032;-39
2023/07/19 08:54:39;;;;;;;2.30;1.77;;;21.90;99.90;;;;;;5032351;28;20029;-43
2023/07/19 08:57:05;;;;;;;2.58;1.45;;;21.90;99.90;;;;;;5032417;28;20027;-42
2023/07/19 08:59:31;;;;;;;2.35;1.58;;;22.00;99.90;;;;;;5032056;28;20025;-42
2023/07/19 09:01:57;;;;;;;1.95;1.30;;;22.00;99.90;;;;;;5032313;28;20045;-40
2023/07/19 09:04:22;;;;;;;3.33;1.52;;;22.00;99.90;;;;;;5032190;28;20021;-43
2023/07/19 09:06:49;;;;;;;3.85;1.55;;;22.00;99.90;;;;;;5032367;28;20123;-40
2023/07/19 09:09:16;;;;;;;2.13;1.40;;;22.00;99.90;;;;;;5031908;28;20072;-39
2023/07/19 09:11:51;;;;;;;2.33;1.33;;;22.00;99.90;;;;;;5032152;28;20025;-40
2023/07/19 09:14:17;;;;;;;2.90;1.58;;;22.00;99.90;;;;;;5032128;28;20028;-41
2023/07/19 09:16:45;;;;;;;2.63;1.45;;;22.00;99.90;;;;;;5032076;28;20396;-40
2023/07/19 09:19:11;;;;;;;2.33;1.48;;;22.00;99.90;;;;;;5031615;28;20037;-45
2023/07/19 09:21:42;;;;;;;2.88;1.40;;;22.00;99.90;;;;;;5031936;28;20021;-43
2023/07/19 09:24:09;;;;;;;3.13;1.25;;;22.00;99.90;;;;;;5031987;28;20049;-42
2023/07/19 09:26:50;;;;;;;4.05;1.30;;;22.00;99.90;;;;;;5031913;28;20029;-41
2023/07/19 09:29:17;;;;;;;2.80;1.52;;;22.00;99.90;;;;;;5031423;28;20025;-40
2023/07/19 09:31:53;;;;;;;2.33;1.40;;;22.10;99.90;;;;;;5031712;28;20017;-40
2023/07/19 09:34:23;;;;;;;4.13;1.60;;;22.00;99.90;;;;;;5031875;28;20035;-42
2023/07/19 09:36:51;;;;;;;3.95;1.33;;;22.00;99.90;;;;;;5032032;28;20032;-39
2023/07/19 09:39:17;;;;;;;2.78;1.30;;;22.00;99.90;;;;;;5031417;28;20032;-42
2023/07/19 09:41:46;;;;;;;2.08;1.30;;;22.00;99.90;;;;;;5031119;28;20104;-43
2023/07/19 09:44:15;;;;;;;2.20;1.30;;;22.10;99.90;;;;;;5031551;28;20424;-41
2023/07/19 09:46:43;;;;;;;2.35;1.38;;;22.10;99.90;;;;;;5031488;28;20031;-42
2023/07/19 09:49:09;;;;;;;2.65;1.60;;;22.10;99.90;;;;;;5031600;28;20100;-41
2023/07/19 09:51:35;;;;;;;2.17;1.42;;;22.10;99.90;;;;;;5031500;28;20540;-40
2023/07/19 09:54:06;;;;;;;2.50;1.50;;;22.10;99.90;;;;;;5031416;28;20018;-45
2023/07/19 09:56:33;;;;;;;3.60;1.63;;;22.10;99.90;;;;;;5031316;28;20014;-40
2023/07/19 09:58:59;;;;;;;2.00;1.50;;;22.10;99.90;;;;;;5031144;28;20234;-41
2023/07/19 10:01:25;;;;;;;1.90;1.48;;;22.10;99.90;;;;;;5031386;28;20033;-40
2023/07/19 10:03:51;;;;;;;2.30;1.30;;;22.20;99.90;;;;;;5031294;28;20056;-39
2023/07/19 10:06:17;;;;;;;3.42;1.42;;;22.20;99.90;;;;;;5031380;28;20029;-41
2023/07/19 10:08:42;;;;;;;2.78;1.38;;;22.20;99.90;;;;;;5013328;28;20025;-39
2023/07/19 10:11:21;;;;;;;2.30;1.40;;;22.20;99.90;;;;;;5031756;28;20029;-41
2023/07/19 10:13:56;;;;;;;2.38;1.50;;;22.20;99.90;;;;;;5032683;28;20021;-39
2023/07/19 10:16:24;;;;;;;2.15;1.13;;;22.20;99.90;;;;;;5014310;28;20021;-41
2023/07/19 10:19:11;;;;;;;2.72;1.45;;;22.20;99.90;;;;;;5030758;28;20048;-41
2023/07/19 10:21:37;;;;;;;1.50;1.20;;;22.20;99.90;;;;;;5030994;28;20029;-41
2023/07/19 10:24:09;;;;;;;2.70;1.40;;;22.20;99.90;;;;;;5031056;28;20045;-40
2023/07/19 10:26:36;;;;;;;2.25;1.25;;;22.20;99.90;;;;;;5031071;28;20025;-41
2023/07/19 10:29:04;;;;;;;2.35;1.27;;;22.20;99.90;;;;;;5031002;28;20034;-40
2023/07/19 10:31:33;;;;;;;2.85;1.35;;;22.30;99.90;;;;;;5031087;28;20511;-38
2023/07/19 10:34:02;;;;;;;2.72;1.55;;;22.30;99.90;;;;;;5030884;28;20037;-40
2023/07/19 10:36:28;;;;;;;2.92;1.45;;;22.30;99.90;;;;;;5031009;28;20107;-40
2023/07/19 10:38:54;;;;;;;6.13;1.40;;;22.30;99.90;;;;;;5030712;28;20033;-41
2023/07/19 10:41:20;;;;;;;2.03;1.33;;;22.30;99.90;;;;;;5031458;28;20040;-41
2023/07/19 10:43:46;;;;;;;2.08;1.30;;;22.30;99.90;;;;;;5013201;28;20049;-39
2023/07/19 10:46:12;;;;;;;2.55;1.42;;;22.30;99.90;;;;;;5030842;28;20481;-39
2023/07/19 10:48:38;;;;;;;2.83;1.40;;;22.30;99.90;;;;;;5030599;28;20117;-39
2023/07/19 10:51:07;;;;;;;4.93;1.40;;;22.30;99.90;;;;;;5030613;28;20033;-40
2023/07/19 10:53:46;;;;;;;1.90;1.35;;;22.30;99.90;;;;;;5031881;28;20033;-40
2023/07/19 10:56:13;;;;;;;2.42;1.40;;;22.30;99.90;;;;;;5034660;28;20374;-41
2023/07/19 10:58:39;;;;;;;2.78;1.50;;;22.30;99.90;;;;;;5034569;28;20523;-39
2023/07/19 11:01:06;;;;;;;1.75;1.40;;;22.30;99.90;;;;;;5034291;28;20057;-41
2023/07/19 11:03:32;;;;;;;2.60;1.27;;;22.30;99.90;;;;;;5034580;28;20030;-44
2023/07/19 11:05:59;;;;;;;2.45;1.15;;;22.30;99.90;;;;;;5034505;28;20014;-41
2023/07/19 11:08:29;;;;;;;2.85;1.33;;;22.30;99.90;;;;;;5034363;28;20029;-39
2023/07/19 11:10:56;;;;;;;3.47;1.20;;;22.30;99.90;;;;;;5034138;28;20057;-40
2023/07/19 11:13:24;;;;;;;2.35;1.25;;;22.30;99.90;;;;;;5034350;28;20022;-41
2023/07/19 11:15:51;;;;;;;2.63;1.40;;;22.30;99.90;;;;;;5034345;28;20033;-40
2023/07/19 11:18:46;;;;;;;2.45;1.48;;;22.30;99.90;;;;;;5034164;28;20037;-41
2023/07/19 11:21:23;;;;;;;3.67;1.40;;;22.30;99.90;;;;;;5021222;28;20044;-40
2023/07/19 11:23:49;;;;;;;2.60;1.40;;;22.30;99.90;;;;;;5034222;28;20028;-39
2023/07/19 11:26:15;;;;;;;2.00;1.30;;;22.30;99.90;;;;;;5034525;28;20037;-41
2023/07/19 11:28:44;;;;;;;2.40;1.05;;;22.30;99.90;;;;;;5033930;28;20064;-40
2023/07/19 11:31:25;;;;;;;2.17;1.40;;;22.30;99.90;;;;;;5033987;28;20029;-38
2023/07/19 11:34:16;;;;;;;2.60;1.20;;;22.30;99.90;;;;;;5033994;28;20536;-40
2023/07/19 11:36:44;;;;;;;2.05;1.30;;;22.30;99.90;;;;;;5033348;28;20041;-38
2023/07/19 11:39:17;;;;;;;2.92;1.40;;;22.40;99.90;;;;;;5033777;28;20470;-40
2023/07/19 11:41:43;;;;;;;4.47;1.55;;;22.40;99.90;;;;;;5033834;28;20435;-42
2023/07/19 11:44:22;;;;;;;1.60;1.20;;;22.30;99.90;;;;;;5033761;28;20032;-41
2023/07/19 11:46:47;;;;;;;1.52;1.13;;;22.30;99.90;;;;;;5033667;28;20022;-41
2023/07/19 11:49:13;;;;;;;1.90;1.50;;;22.40;99.90;;;;;;5033279;28;20029;-45
2023/07/19 11:51:40;;;;;;;2.20;1.10;;;22.30;99.90;;;;;;5033676;28;20512;-42
2023/07/19 11:54:06;;;;;;;2.08;1.15;;;22.40;99.90;;;;;;5033789;28;20025;-40
2023/07/19 11:56:31;;;;;;;1.80;1.20;;;22.40;99.90;;;;;;5015900;28;20048;-43
2023/07/19 11:58:57;;;;;;;4.90;1.30;;;22.40;99.90;;;;;;5033241;28;20025;-41
2023/07/19 12:01:25;;;;;;;4.30;1.50;;;22.40;99.90;;;;;;5033365;28;20473;-39
2023/07/19 12:03:51;;;;;;;2.15;1.50;;;22.30;99.90;;;;;;5033095;28;20107;-40
2023/07/19 12:06:16;;;;;;;3.13;1.45;;;22.40;99.90;;;;;;5033334;28;20481;-39
2023/07/19 12:08:43;;;;;;;3.28;1.27;;;22.40;99.90;;;;;;5033161;28;20374;-41
2023/07/19 12:11:09;;;;;;;2.30;1.50;;;22.40;99.90;;;;;;5033192;28;20033;-40
2023/07/19 12:13:36;;;;;;;1.75;1.35;;;22.40;99.90;;;;;;5033276;28;20017;-38
2023/07/19 12:16:02;;;;;;;1.70;1.15;;;22.40;99.90;;;;;;5033607;28;20045;-41
2023/07/19 12:18:29;;;;;;;2.30;1.30;;;22.40;99.90;;;;;;5032967;28;20468;-41
2023/07/19 12:20:55;;;;;;;3.15;1.40;;;22.40;99.90;;;;;;5032876;28;20025;-40
2023/07/19 12:23:21;;;;;;;3.65;1.50;;;22.40;99.90;;;;;;5033123;28;20428;-41
2023/07/19 12:25:47;;;;;;;1.77;1.02;;;22.40;99.90;;;;;;5033046;28;20021;-40
2023/07/19 12:28:14;;;;;;;2.58;1.50;;;22.40;99.90;;;;;;5015205;28;20421;-43
2023/07/19 12:30:40;;;;;;;2.35;1.42;;;22.40;99.90;;;;;;5032593;28;20105;-40
2023/07/19 12:33:06;;;;;;;2.40;1.35;;;22.40;99.90;;;;;;5032965;28;20028;-43
2023/07/19 12:35:32;;;;;;;1.77;1.33;;;22.40;99.90;;;;;;5032815;28;20018;-42
2023/07/19 12:37:57;;;;;;;3.83;1.20;;;22.40;99.90;;;;;;5032690;28;20461;-41
2023/07/19 12:40:23;;;;;;;3.55;1.52;;;22.40;99.90;;;;;;5014774;28;20492;-41
2023/07/19 12:42:48;;;;;;;2.25;1.60;;;22.50;99.90;;;;;;5032784;28;20059;-40